首页
METAR-TAF:

METAR-TAF

机场 :

黑堡, 弗吉尼亚州, 美国

纬度: 37-13N, 经度: 080-25W, 海拔: 650米

当前天气观测

该预报发布于13分钟前的11:15 UTC
静风
温度 -1°C
湿度 100%
气压 1024 hPa
能見度: 8.0公里
天空无云
轻雾

METAR: KBCB 171115Z AUTO 00000KT 5SM BR CLR M01/M01 A3025 RMK AO2 T10061006

时间: 06:28 (11:28 UTC)

预报

该预报发布于3小时和55分钟前的07:33 UTC
预报有效从17日的 08点(UTC)到 18日的 06点(UTC)
风速节,风向
能見度: 10公里
散云层高于2500英尺
从 17日的 1400点(UTC)
风速5节,风向西转西北
能見度: 10公里
散云层高于3500英尺
从 17日的 2100点(UTC)
风速3节,风向西转西南
能見度: 10公里
散云层高于25000英尺

TAF: KBCB 170733Z 1708/1806 00000KT P6SM SCT025 FM171400 29005KT P6SM SCT035 FM172100 24003KT P6SM SCT250

超过4000个机场的气象观测和天气预报(METAR&TAF报告)。

可查询的气象台以黄色和红色小点在地图上表示。

将鼠标移到小点上方,可查看气象台名称。

然后点击查看天气观测和预报。

如需切换地图:点击带黑十字的绿色按钮放大地图;点击带横线的绿色按钮缩小地图;或者点击绿色箭头查看邻近地区的地图。


METAR-TAF: